^^
Saratoga-Weather Station Historical Data
Daily Summary for April 3, 2021 Units:  Both    English   Metric
Daily Weekly Monthly Yearly Custom
  High: Low: Average:
Temperature: 81.7 °F /  27.6 °C 54.7 °F /  12.6 °C 66.6 °F /  19.2 °C
Dew Point: 59.5 °F /  15.3 °C 52.3 °F /  11.3 °C 55.8 °F /  13.2 °C
Humidity: 93% 40% 71%
Wind Speed: 6.9mph /  11.1km/h - 0.7mph /  1.1km/h
Wind Gust: 8mph /  12.9km/h - -
Wind- - SE
Pressure: 30.1 in /  1020.7 hPa 30 in /  1015.2 hPa -
Precipitation: 0 in /  0.0 mm    
Historical Graphs
 
 
Tabular Data for April 3, 2021
Time Temperature Dew Point Pressure Wind Wind Speed Wind Gust Humidity Rainfall Rate (Hourly) solar
00:00 60.3 °F /  15.7 °C 55 °F /  12.8 °C 30.1in /  1020.7hPa SSE 0.9mph /  1.4km/h 2mph /  3.2km/h 83% 0in /  0.0mm 0 W/m2
00:05 60.1 °F /  15.6 °C 54.9 °F /  12.7 °C 30.1in /  1020.7hPa Calm     83% 0in /  0.0mm 0 W/m2
00:10 59.7 °F /  15.4 °C 54.9 °F /  12.7 °C 30.1in /  1020.7hPa Calm   2mph /  3.2km/h 84% 0in /  0.0mm 0 W/m2
00:15 59.4 °F /  15.2 °C 54.5 °F /  12.5 °C 30.1in /  1020.7hPa Calm   1mph /  1.6km/h 84% 0in /  0.0mm 0 W/m2
00:20 59.2 °F /  15.1 °C 54.7 °F /  12.6 °C 30.1in /  1020.7hPa SSE 0.9mph /  1.4km/h 1mph /  1.6km/h 85% 0in /  0.0mm 0 W/m2
00:25 58.8 °F /  14.9 °C 54.3 °F /  12.4 °C 30.1in /  1020.3hPa Calm     85% 0in /  0.0mm 0 W/m2
00:30 58.6 °F /  14.8 °C 54.5 °F /  12.5 °C 30.1in /  1020.3hPa Calm     86% 0in /  0.0mm 0 W/m2
00:35 58.6 °F /  14.8 °C 54.5 °F /  12.5 °C 30.1in /  1020.3hPa Calm     86% 0in /  0.0mm 0 W/m2
00:40 58.5 °F /  14.7 °C 54.3 °F /  12.4 °C 30.1in /  1020.3hPa Calm     86% 0in /  0.0mm 0 W/m2
00:45 58.3 °F /  14.6 °C 54.5 °F /  12.5 °C 30.1in /  1020.3hPa Calm   2mph /  3.2km/h 87% 0in /  0.0mm 0 W/m2
00:50 58.1 °F /  14.5 °C 54.3 °F /  12.4 °C 30.1in /  1020.3hPa Calm     87% 0in /  0.0mm 0 W/m2
00:55 57.9 °F /  14.4 °C 54.1 °F /  12.3 °C 30.1in /  1020.3hPa SSE 2mph /  3.2km/h 2mph /  3.2km/h 87% 0in /  0.0mm 0 W/m2
01:01 57.9 °F /  14.4 °C 54.3 °F /  12.4 °C 30.1in /  1020.3hPa Calm     88% 0in /  0.0mm 0 W/m2
01:06 57.9 °F /  14.4 °C 54.3 °F /  12.4 °C 30.1in /  1020.3hPa Calm     88% 0in /  0.0mm 0 W/m2
01:11 57.9 °F /  14.4 °C 54.3 °F /  12.4 °C 30.1in /  1020.3hPa Calm   2mph /  3.2km/h 88% 0in /  0.0mm 0 W/m2
01:16 57.7 °F /  14.3 °C 54.1 °F /  12.3 °C 30.1in /  1020.0hPa Calm     88% 0in /  0.0mm 0 W/m2
01:21 57.7 °F /  14.3 °C 54.1 °F /  12.3 °C 30.1in /  1020.0hPa Calm     88% 0in /  0.0mm 0 W/m2
01:26 57.7 °F /  14.3 °C 54.1 °F /  12.3 °C 30.1in /  1020.0hPa Calm     88% 0in /  0.0mm 0 W/m2
01:31 57.7 °F /  14.3 °C 54.1 °F /  12.3 °C 30.1in /  1020.0hPa Calm     88% 0in /  0.0mm 0 W/m2
01:36 57.7 °F /  14.3 °C 54.1 °F /  12.3 °C 30.1in /  1020.0hPa Calm     88% 0in /  0.0mm 0 W/m2
01:41 57.7 °F /  14.3 °C 54.1 °F /  12.3 °C 30.1in /  1020.0hPa Calm     88% 0in /  0.0mm 0 W/m2
01:46 57.6 °F /  14.2 °C 54.3 °F /  12.4 °C 30.1in /  1020.0hPa Calm     89% 0in /  0.0mm 0 W/m2
01:51 57.6 °F /  14.2 °C 54.3 °F /  12.4 °C 30.1in /  1020.0hPa Calm     89% 0in /  0.0mm 0 W/m2
01:56 57.7 °F /  14.3 °C 54.5 °F /  12.5 °C 30.1in /  1020.0hPa Calm     89% 0in /  0.0mm 0 W/m2
02:01 57.7 °F /  14.3 °C 54.5 °F /  12.5 °C 30.1in /  1020.0hPa Calm     89% 0in /  0.0mm 0 W/m2
02:06 57.6 °F /  14.2 °C 54.3 °F /  12.4 °C 30.1in /  1020.0hPa Calm     89% 0in /  0.0mm 0 W/m2
02:11 57.6 °F /  14.2 °C 54.3 °F /  12.4 °C 30.1in /  1020.0hPa Calm     89% 0in /  0.0mm 0 W/m2
02:16 57.4 °F /  14.1 °C 54.1 °F /  12.3 °C 30.1in /  1020.0hPa Calm     89% 0in /  0.0mm 0 W/m2
02:21 57.4 °F /  14.1 °C 54.1 °F /  12.3 °C 30.1in /  1019.6hPa Calm     89% 0in /  0.0mm 0 W/m2
02:26 57.2 °F /  14 °C 54 °F /  12.2 °C 30.1in /  1019.6hPa Calm     89% 0in /  0.0mm 0 W/m2
02:31 57 °F /  13.9 °C 53.8 °F /  12.1 °C 30.1in /  1019.6hPa Calm     89% 0in /  0.0mm 0 W/m2
02:36 57 °F /  13.9 °C 53.8 °F /  12.1 °C 30.1in /  1019.6hPa Calm     89% 0in /  0.0mm 0 W/m2
02:41 56.8 °F /  13.8 °C 54 °F /  12.2 °C 30.1in /  1019.6hPa Calm     90% 0in /  0.0mm 0 W/m2
02:46 56.8 °F /  13.8 °C 54 °F /  12.2 °C 30.1in /  1019.6hPa Calm     90% 0in /  0.0mm 0 W/m2
02:51 56.8 °F /  13.8 °C 54 °F /  12.2 °C 30.1in /  1019.6hPa Calm     90% 0in /  0.0mm 0 W/m2
02:56 56.8 °F /  13.8 °C 54 °F /  12.2 °C 30.1in /  1019.6hPa Calm     90% 0in /  0.0mm 0 W/m2
03:01 56.7 °F /  13.7 °C 53.8 °F /  12.1 °C 30.1in /  1019.6hPa Calm     90% 0in /  0.0mm 0 W/m2
03:06 56.8 °F /  13.8 °C 54.3 °F /  12.4 °C 30.1in /  1019.6hPa Calm     91% 0in /  0.0mm 0 W/m2
03:11 56.8 °F /  13.8 °C 54.3 °F /  12.4 °C 30.1in /  1019.6hPa Calm     91% 0in /  0.0mm 0 W/m2
03:16 56.8 °F /  13.8 °C 54 °F /  12.2 °C 30.1in /  1019.6hPa Calm     90% 0in /  0.0mm 0 W/m2
03:21 56.8 °F /  13.8 °C 54 °F /  12.2 °C 30.1in /  1019.6hPa Calm     90% 0in /  0.0mm 0 W/m2
03:26 56.8 °F /  13.8 °C 54 °F /  12.2 °C 30.1in /  1019.6hPa Calm     90% 0in /  0.0mm 0 W/m2
03:31 56.8 °F /  13.8 °C 54 °F /  12.2 °C 30.1in /  1019.6hPa Calm     90% 0in /  0.0mm 0 W/m2
03:36 56.8 °F /  13.8 °C 54 °F /  12.2 °C 30.1in /  1019.3hPa Calm     90% 0in /  0.0mm 0 W/m2
03:41 57 °F /  13.9 °C 54.1 °F /  12.3 °C 30.1in /  1019.3hPa Calm     90% 0in /  0.0mm 0 W/m2
03:46 57.4 °F /  14.1 °C 54.5 °F /  12.5 °C 30.1in /  1019.3hPa Calm     90% 0in /  0.0mm 0 W/m2
03:51 57.6 °F /  14.2 °C 54.3 °F /  12.4 °C 30.1in /  1019.3hPa Calm     89% 0in /  0.0mm 0 W/m2
03:56 57.4 °F /  14.1 °C 54.1 °F /  12.3 °C 30.1in /  1019.3hPa Calm     89% 0in /  0.0mm 0 W/m2
04:01 57.4 °F /  14.1 °C 54.1 °F /  12.3 °C 30.1in /  1019.3hPa Calm     89% 0in /  0.0mm 0 W/m2
04:07 57 °F /  13.9 °C 53.8 °F /  12.1 °C 30.1in /  1019.3hPa Calm     89% 0in /  0.0mm 0 W/m2
04:12 57 °F /  13.9 °C 53.8 °F /  12.1 °C 30.1in /  1019.3hPa Calm     89% 0in /  0.0mm 0 W/m2
04:17 56.8 °F /  13.8 °C 53.6 °F /  12 °C 30.1in /  1019.3hPa Calm     89% 0in /  0.0mm 0 W/m2
04:22 56.7 °F /  13.7 °C 53.4 °F /  11.9 °C 30.1in /  1019.3hPa Calm     89% 0in /  0.0mm 0 W/m2
04:27 56.7 °F /  13.7 °C 53.4 °F /  11.9 °C 30.1in /  1019.3hPa Calm     89% 0in /  0.0mm 0 W/m2
04:32 56.5 °F /  13.6 °C 53.6 °F /  12 °C 30.1in /  1019.3hPa Calm     90% 0in /  0.0mm 0 W/m2
04:37 56.5 °F /  13.6 °C 53.6 °F /  12 °C 30.1in /  1019.3hPa Calm     90% 0in /  0.0mm 0 W/m2
04:42 56.5 °F /  13.6 °C 53.6 °F /  12 °C 30.1in /  1019.3hPa Calm     90% 0in /  0.0mm 0 W/m2
04:47 56.5 °F /  13.6 °C 54 °F /  12.2 °C 30.1in /  1019.3hPa Calm     91% 0in /  0.0mm 0 W/m2
04:52 56.5 °F /  13.6 °C 54 °F /  12.2 °C 30.1in /  1019.3hPa Calm     91% 0in /  0.0mm 0 W/m2
04:57 56.7 °F /  13.7 °C 54.1 °F /  12.3 °C 30.1in /  1019.3hPa Calm     91% 0in /  0.0mm 0 W/m2
05:02 56.5 °F /  13.6 °C 53.6 °F /  12 °C 30.1in /  1019.3hPa Calm     90% 0in /  0.0mm 0 W/m2
05:07 56.5 °F /  13.6 °C 53.6 °F /  12 °C 30.1in /  1019.3hPa Calm     90% 0in /  0.0mm 0 W/m2
05:12 56.5 °F /  13.6 °C 53.6 °F /  12 °C 30.1in /  1019.3hPa Calm     90% 0in /  0.0mm 0 W/m2
05:17 56.5 °F /  13.6 °C 53.6 °F /  12 °C 30.1in /  1019.0hPa Calm     90% 0in /  0.0mm 0 W/m2
05:22 56.3 °F /  13.5 °C 53.4 °F /  11.9 °C 30.1in /  1019.3hPa Calm     90% 0in /  0.0mm 0 W/m2
05:27 56.1 °F /  13.4 °C 53.2 °F /  11.8 °C 30.1in /  1019.0hPa Calm     90% 0in /  0.0mm 0 W/m2
05:32 56.1 °F /  13.4 °C 53.2 °F /  11.8 °C 30.1in /  1019.0hPa Calm     90% 0in /  0.0mm 0 W/m2
05:37 55.9 °F /  13.3 °C 53.1 °F /  11.7 °C 30.1in /  1019.0hPa Calm     90% 0in /  0.0mm 0 W/m2
05:42 55.9 °F /  13.3 °C 53.1 °F /  11.7 °C 30.1in /  1019.0hPa Calm     90% 0in /  0.0mm 0 W/m2
05:47 55.8 °F /  13.2 °C 53.2 °F /  11.8 °C 30.1in /  1019.0hPa Calm     91% 0in /  0.0mm 0 W/m2
05:52 55.8 °F /  13.2 °C 53.2 °F /  11.8 °C 30.1in /  1019.0hPa Calm     91% 0in /  0.0mm 0 W/m2
05:57 55.6 °F /  13.1 °C 53.1 °F /  11.7 °C 30.1in /  1019.0hPa Calm     91% 0in /  0.0mm 0 W/m2
06:02 55.6 °F /  13.1 °C 53.1 °F /  11.7 °C 30.1in /  1019.0hPa Calm     91% 0in /  0.0mm 0 W/m2
06:07 55.4 °F /  13 °C 52.9 °F /  11.6 °C 30.1in /  1019.0hPa Calm     91% 0in /  0.0mm 0 W/m2
06:12 55.4 °F /  13 °C 52.9 °F /  11.6 °C 30.1in /  1019.0hPa Calm     91% 0in /  0.0mm 0 W/m2
06:17 55.2 °F /  12.9 °C 52.7 °F /  11.5 °C 30.1in /  1019.0hPa Calm     91% 0in /  0.0mm 0 W/m2
06:22 55.2 °F /  12.9 °C 52.7 °F /  11.5 °C 30.1in /  1019.0hPa Calm     91% 0in /  0.0mm 0 W/m2
06:27 55 °F /  12.8 °C 52.5 °F /  11.4 °C 30.1in /  1019.0hPa Calm     91% 0in /  0.0mm 0 W/m2
06:32 54.9 °F /  12.7 °C 52.3 °F /  11.3 °C 30.1in /  1019.0hPa Calm     91% 0in /  0.0mm 0 W/m2
06:37 54.9 °F /  12.7 °C 52.3 °F /  11.3 °C 30.1in /  1019.0hPa Calm     91% 0in /  0.0mm 0 W/m2
06:42 54.7 °F /  12.6 °C 52.3 °F /  11.3 °C 30.1in /  1019.0hPa Calm     92% 0in /  0.0mm 0 W/m2
06:47 54.7 °F /  12.6 °C 52.3 °F /  11.3 °C 30.1in /  1019.0hPa Calm     92% 0in /  0.0mm 0 W/m2
06:52 54.7 °F /  12.6 °C 52.3 °F /  11.3 °C 30.1in /  1019.0hPa Calm     92% 0in /  0.0mm 0 W/m2
06:57 54.7 °F /  12.6 °C 52.3 °F /  11.3 °C 30.1in /  1019.0hPa Calm     92% 0in /  0.0mm 5 W/m2
07:02 54.7 °F /  12.6 °C 52.3 °F /  11.3 °C 30.1in /  1019.0hPa Calm     92% 0in /  0.0mm 7 W/m2
07:07 54.7 °F /  12.6 °C 52.3 °F /  11.3 °C 30.1in /  1019.0hPa Calm     92% 0in /  0.0mm 9 W/m2
07:12 54.7 °F /  12.6 °C 52.7 °F /  11.5 °C 30.1in /  1019.0hPa Calm     93% 0in /  0.0mm 11 W/m2
07:17 54.7 °F /  12.6 °C 52.7 °F /  11.5 °C 30.1in /  1019.0hPa Calm     93% 0in /  0.0mm 12 W/m2
07:22 54.7 °F /  12.6 °C 52.7 °F /  11.5 °C 30.1in /  1019.0hPa Calm     93% 0in /  0.0mm 14 W/m2
07:27 54.9 °F /  12.7 °C 52.9 °F /  11.6 °C 30.1in /  1019.0hPa Calm     93% 0in /  0.0mm 16 W/m2
07:32 54.9 °F /  12.7 °C 52.9 °F /  11.6 °C 30.1in /  1019.3hPa Calm     93% 0in /  0.0mm 19 W/m2
07:37 55 °F /  12.8 °C 53.1 °F /  11.7 °C 30.1in /  1019.3hPa Calm     93% 0in /  0.0mm 21 W/m2
07:42 55.2 °F /  12.9 °C 53.2 °F /  11.8 °C 30.1in /  1019.3hPa Calm     93% 0in /  0.0mm 21 W/m2
07:47 55.4 °F /  13 °C 53.1 °F /  11.7 °C 30.1in /  1019.3hPa Calm     92% 0in /  0.0mm 23 W/m2
07:52 55.6 °F /  13.1 °C 53.2 °F /  11.8 °C 30.1in /  1019.3hPa Calm     92% 0in /  0.0mm 25 W/m2
07:57 55.8 °F /  13.2 °C 53.4 °F /  11.9 °C 30.1in /  1019.0hPa Calm     92% 0in /  0.0mm 26 W/m2
08:02 55.8 °F /  13.2 °C 53.4 °F /  11.9 °C 30.1in /  1019.3hPa Calm     92% 0in /  0.0mm 28 W/m2
08:07 56.1 °F /  13.4 °C 53.6 °F /  12 °C 30.1in /  1019.3hPa Calm     91% 0in /  0.0mm 30 W/m2
08:12 56.3 °F /  13.5 °C 53.8 °F /  12.1 °C 30.1in /  1019.0hPa Calm     91% 0in /  0.0mm 33 W/m2
08:17 56.5 °F /  13.6 °C 53.6 °F /  12 °C 30.1in /  1019.3hPa Calm     90% 0in /  0.0mm 74 W/m2
08:22 56.8 °F /  13.8 °C 54 °F /  12.2 °C 30.1in /  1019.3hPa Calm     90% 0in /  0.0mm 123 W/m2
08:27 57 °F /  13.9 °C 53.8 °F /  12.1 °C 30.1in /  1019.3hPa Calm     89% 0in /  0.0mm 149 W/m2
08:32 57.4 °F /  14.1 °C 53.8 °F /  12.1 °C 30.1in /  1019.3hPa Calm     88% 0in /  0.0mm 165 W/m2
08:37 57.7 °F /  14.3 °C 54.1 °F /  12.3 °C 30.1in /  1019.3hPa Calm     88% 0in /  0.0mm 179 W/m2
08:42 58.1 °F /  14.5 °C 54.3 °F /  12.4 °C 30.1in /  1019.3hPa Calm     87% 0in /  0.0mm 195 W/m2
08:47 58.5 °F /  14.7 °C 54.7 °F /  12.6 °C 30.1in /  1019.0hPa Calm     87% 0in /  0.0mm 209 W/m2
08:52 58.8 °F /  14.9 °C 54.7 °F /  12.6 °C 30.1in /  1019.0hPa Calm     86% 0in /  0.0mm 223 W/m2
08:57 59.4 °F /  15.2 °C 54.9 °F /  12.7 °C 30.1in /  1019.0hPa Calm     85% 0in /  0.0mm 237 W/m2
09:02 59.7 °F /  15.4 °C 55.2 °F /  12.9 °C 30.1in /  1019.0hPa Calm     85% 0in /  0.0mm 250 W/m2
09:07 59.9 °F /  15.5 °C 55.4 °F /  13 °C 30.1in /  1019.0hPa Calm     85% 0in /  0.0mm 51 W/m2
09:12 60.1 °F /  15.6 °C 55.2 °F /  12.9 °C 30.1in /  1019.3hPa Calm     84% 0in /  0.0mm 47 W/m2
09:17 60.3 °F /  15.7 °C 55 °F /  12.8 °C 30.1in /  1019.0hPa Calm     83% 0in /  0.0mm 292 W/m2
09:22 60.6 °F /  15.9 °C 55.4 °F /  13 °C 30.1in /  1019.3hPa Calm     83% 0in /  0.0mm 306 W/m2
09:27 61 °F /  16.1 °C 55.4 °F /  13 °C 30.1in /  1019.0hPa NE 2.9mph /  4.7km/h 3mph /  4.8km/h 82% 0in /  0.0mm 323 W/m2
09:32 61.3 °F /  16.3 °C 55.4 °F /  13 °C 30.1in /  1019.0hPa ENE 0.9mph /  1.4km/h 4mph /  6.4km/h 81% 0in /  0.0mm 336 W/m2
09:37 61.7 °F /  16.5 °C 56.1 °F /  13.4 °C 30.1in /  1019.0hPa ESE 0.9mph /  1.4km/h 3mph /  4.8km/h 82% 0in /  0.0mm 353 W/m2
09:42 62.4 °F /  16.9 °C 55.8 °F /  13.2 °C 30.1in /  1019.0hPa East 2.9mph /  4.7km/h 4mph /  6.4km/h 79% 0in /  0.0mm 364 W/m2
09:47 62.4 °F /  16.9 °C 55.4 °F /  13 °C 30.1in /  1019.0hPa East 2mph /  3.2km/h 3mph /  4.8km/h 78% 0in /  0.0mm 378 W/m2
09:52 63 °F /  17.2 °C 56.3 °F /  13.5 °C 30.1in /  1019.0hPa SSE 0.9mph /  1.4km/h 2mph /  3.2km/h 79% 0in /  0.0mm 390 W/m2
09:57 63.7 °F /  17.6 °C 56.3 °F /  13.5 °C 30.1in /  1019.0hPa NE 2mph /  3.2km/h 4mph /  6.4km/h 77% 0in /  0.0mm 404 W/m2
10:02 64 °F /  17.8 °C 56.3 °F /  13.5 °C 30.1in /  1019.0hPa East 6.9mph /  11.1km/h 7mph /  11.3km/h 76% 0in /  0.0mm 417 W/m2
10:07 64 °F /  17.8 °C 55.9 °F /  13.3 °C 30.1in /  1019.0hPa NE 2mph /  3.2km/h 3mph /  4.8km/h 75% 0in /  0.0mm 431 W/m2
10:12 64.2 °F /  17.9 °C 56.1 °F /  13.4 °C 30.1in /  1019.0hPa NE 2mph /  3.2km/h 7mph /  11.3km/h 75% 0in /  0.0mm 441 W/m2
10:17 64.8 °F /  18.2 °C 56.7 °F /  13.7 °C 30.1in /  1019.0hPa NE 0.9mph /  1.4km/h 3mph /  4.8km/h 75% 0in /  0.0mm 452 W/m2
10:23 64.9 °F /  18.3 °C 56.5 °F /  13.6 °C 30.1in /  1019.0hPa South 0.9mph /  1.4km/h 1mph /  1.6km/h 74% 0in /  0.0mm 468 W/m2
10:28 65.3 °F /  18.5 °C 56.8 °F /  13.8 °C 30.1in /  1019.0hPa Calm   3mph /  4.8km/h 74% 0in /  0.0mm 480 W/m2
10:33 65.8 °F /  18.8 °C 57 °F /  13.9 °C 30.1in /  1019.0hPa ENE 2mph /  3.2km/h 4mph /  6.4km/h 73% 0in /  0.0mm 492 W/m2
10:38 66 °F /  18.9 °C 56.7 °F /  13.7 °C 30.1in /  1019.0hPa ENE 2mph /  3.2km/h 3mph /  4.8km/h 72% 0in /  0.0mm 503 W/m2
10:43 66 °F /  18.9 °C 56.7 °F /  13.7 °C 30.1in /  1019.0hPa Calm   3mph /  4.8km/h 72% 0in /  0.0mm 513 W/m2
10:48 66.6 °F /  19.2 °C 57.6 °F /  14.2 °C 30.1in /  1019.3hPa East 0.9mph /  1.4km/h 3mph /  4.8km/h 73% 0in /  0.0mm 524 W/m2
10:53 66.7 °F /  19.3 °C 57.4 °F /  14.1 °C 30.1in /  1019.3hPa Calm   2mph /  3.2km/h 72% 0in /  0.0mm 534 W/m2
10:58 66.9 °F /  19.4 °C 57.6 °F /  14.2 °C 30.1in /  1019.3hPa NE 2mph /  3.2km/h 4mph /  6.4km/h 72% 0in /  0.0mm 545 W/m2
11:03 66.7 °F /  19.3 °C 57.4 °F /  14.1 °C 30.1in /  1019.3hPa NNE 0.9mph /  1.4km/h 3mph /  4.8km/h 72% 0in /  0.0mm 555 W/m2
11:08 66.9 °F /  19.4 °C 57.6 °F /  14.2 °C 30.1in /  1019.3hPa NW 0.9mph /  1.4km/h 4mph /  6.4km/h 72% 0in /  0.0mm 566 W/m2
11:13 67.5 °F /  19.7 °C 57.7 °F /  14.3 °C 30.1in /  1019.0hPa Calm   3mph /  4.8km/h 71% 0in /  0.0mm 578 W/m2
11:18 67.8 °F /  19.9 °C 58.1 °F /  14.5 °C 30.1in /  1019.0hPa ENE 0.9mph /  1.4km/h 1mph /  1.6km/h 71% 0in /  0.0mm 587 W/m2
11:23 68.2 °F /  20.1 °C 58.1 °F /  14.5 °C 30.1in /  1019.0hPa NE 0.9mph /  1.4km/h 3mph /  4.8km/h 70% 0in /  0.0mm 594 W/m2
11:28 68.2 °F /  20.1 °C 58.1 °F /  14.5 °C 30.1in /  1019.0hPa North 5mph /  8km/h 5mph /  8km/h 70% 0in /  0.0mm 606 W/m2
11:33 68.5 °F /  20.3 °C 58.8 °F /  14.9 °C 30.1in /  1019.0hPa Calm   2mph /  3.2km/h 71% 0in /  0.0mm 617 W/m2
11:38 69.1 °F /  20.6 °C 58.8 °F /  14.9 °C 30.1in /  1019.0hPa Calm   2mph /  3.2km/h 70% 0in /  0.0mm 624 W/m2
11:43 69.4 °F /  20.8 °C 58.5 °F /  14.7 °C 30.1in /  1019.0hPa NNW 2mph /  3.2km/h 2mph /  3.2km/h 68% 0in /  0.0mm 631 W/m2
11:48 69.4 °F /  20.8 °C 57.9 °F /  14.4 °C 30.1in /  1019.0hPa NE 5mph /  8km/h 5mph /  8km/h 67% 0in /  0.0mm 642 W/m2
11:53 69.4 °F /  20.8 °C 57.9 °F /  14.4 °C 30.1in /  1019.0hPa NE 0.9mph /  1.4km/h 4mph /  6.4km/h 67% 0in /  0.0mm 652 W/m2
11:58 69.6 °F /  20.9 °C 58.6 °F /  14.8 °C 30.1in /  1019.0hPa NE 2.9mph /  4.7km/h 4mph /  6.4km/h 68% 0in /  0.0mm 661 W/m2
12:03 70.3 °F /  21.3 °C 58.5 °F /  14.7 °C 30.1in /  1019.0hPa ESE 2.9mph /  4.7km/h 3mph /  4.8km/h 66% 0in /  0.0mm 666 W/m2
12:08 71.2 °F /  21.8 °C 58.8 °F /  14.9 °C 30.1in /  1019.0hPa Calm   2mph /  3.2km/h 65% 0in /  0.0mm 675 W/m2
12:13 72 °F /  22.2 °C 58.3 °F /  14.6 °C 30.1in /  1018.6hPa ESE 2mph /  3.2km/h 3mph /  4.8km/h 62% 0in /  0.0mm 687 W/m2
12:18 72.7 °F /  22.6 °C 58.8 °F /  14.9 °C 30.1in /  1018.6hPa SE 0.9mph /  1.4km/h 6mph /  9.7km/h 62% 0in /  0.0mm 691 W/m2
12:23 73 °F /  22.8 °C 58.3 °F /  14.6 °C 30.1in /  1018.6hPa NE 2.9mph /  4.7km/h 4mph /  6.4km/h 60% 0in /  0.0mm 698 W/m2
12:28 73.4 °F /  23 °C 59.5 °F /  15.3 °C 30.1in /  1018.6hPa West 0.9mph /  1.4km/h 6mph /  9.7km/h 62% 0in /  0.0mm 703 W/m2
12:33 73.8 °F /  23.2 °C 59 °F /  15 °C 30.1in /  1018.6hPa ENE 2.9mph /  4.7km/h 4mph /  6.4km/h 60% 0in /  0.0mm 707 W/m2
12:38 74.1 °F /  23.4 °C 58.8 °F /  14.9 °C 30.1in /  1018.6hPa NE 2mph /  3.2km/h 5mph /  8km/h 59% 0in /  0.0mm 712 W/m2
12:43 74.1 °F /  23.4 °C 57.9 °F /  14.4 °C 30.1in /  1018.6hPa ENE 2.9mph /  4.7km/h 6mph /  9.7km/h 57% 0in /  0.0mm 719 W/m2
12:48 73.9 °F /  23.3 °C 57.7 °F /  14.3 °C 30.1in /  1018.6hPa South 2mph /  3.2km/h 3mph /  4.8km/h 57% 0in /  0.0mm 719 W/m2
12:53 74.1 °F /  23.4 °C 58.5 °F /  14.7 °C 30.1in /  1018.3hPa ENE 2mph /  3.2km/h 3mph /  4.8km/h 58% 0in /  0.0mm 719 W/m2
12:58 74.5 °F /  23.6 °C 58.3 °F /  14.6 °C 30.1in /  1018.3hPa ENE 4.9mph /  7.9km/h 8mph /  12.9km/h 57% 0in /  0.0mm 728 W/m2
13:03 74.8 °F /  23.8 °C 59 °F /  15 °C 30.1in /  1018.3hPa ESE 0.9mph /  1.4km/h 3mph /  4.8km/h 58% 0in /  0.0mm 726 W/m2
13:08 75.2 °F /  24 °C 57.4 °F /  14.1 °C 30.1in /  1018.3hPa ENE 2.9mph /  4.7km/h 3mph /  4.8km/h 54% 0in /  0.0mm 733 W/m2
13:13 75.6 °F /  24.2 °C 58.3 °F /  14.6 °C 30.1in /  1018.3hPa ENE 2mph /  3.2km/h 6mph /  9.7km/h 55% 0in /  0.0mm 733 W/m2
13:18 75.7 °F /  24.3 °C 58.5 °F /  14.7 °C 30.1in /  1018.3hPa East 2mph /  3.2km/h 3mph /  4.8km/h 55% 0in /  0.0mm 737 W/m2
13:23 76.1 °F /  24.5 °C 58.3 °F /  14.6 °C 30.1in /  1018.3hPa Calm   5mph /  8km/h 54% 0in /  0.0mm 740 W/m2
13:28 76.5 °F /  24.7 °C 57.6 °F /  14.2 °C 30.1in /  1018.0hPa NE 0.9mph /  1.4km/h 4mph /  6.4km/h 52% 0in /  0.0mm 742 W/m2
13:33 76.6 °F /  24.8 °C 57.7 °F /  14.3 °C 30.1in /  1018.0hPa ENE 2.9mph /  4.7km/h 5mph /  8km/h 52% 0in /  0.0mm 744 W/m2
13:38 76.6 °F /  24.8 °C 57.7 °F /  14.3 °C 30.1in /  1018.0hPa Calm   2mph /  3.2km/h 52% 0in /  0.0mm 742 W/m2
13:43 77 °F /  25 °C 57 °F /  13.9 °C 30.1in /  1018.0hPa ESE 0.9mph /  1.4km/h 5mph /  8km/h 50% 0in /  0.0mm 745 W/m2
13:48 77.2 °F /  25.1 °C 57.7 °F /  14.3 °C 30.1in /  1018.0hPa North 0.9mph /  1.4km/h 7mph /  11.3km/h 51% 0in /  0.0mm 747 W/m2
13:53 77 °F /  25 °C 57 °F /  13.9 °C 30.1in /  1018.0hPa SE 2mph /  3.2km/h 5mph /  8km/h 50% 0in /  0.0mm 744 W/m2
13:58 77.2 °F /  25.1 °C 57 °F /  13.9 °C 30.1in /  1018.0hPa NW 0.9mph /  1.4km/h 7mph /  11.3km/h 50% 0in /  0.0mm 744 W/m2
14:03 77.5 °F /  25.3 °C 57.4 °F /  14.1 °C 30.1in /  1018.0hPa SW 2mph /  3.2km/h 2mph /  3.2km/h 50% 0in /  0.0mm 747 W/m2
14:08 77.5 °F /  25.3 °C 56.8 °F /  13.8 °C 30.1in /  1018.0hPa ENE 2mph /  3.2km/h 5mph /  8km/h 49% 0in /  0.0mm 744 W/m2
14:13 77.7 °F /  25.4 °C 58.1 °F /  14.5 °C 30.1in /  1017.6hPa NE 2.9mph /  4.7km/h 4mph /  6.4km/h 51% 0in /  0.0mm 742 W/m2
14:18 77.9 °F /  25.5 °C 57.2 °F /  14 °C 30.1in /  1017.6hPa Calm   5mph /  8km/h 49% 0in /  0.0mm 742 W/m2
14:23 77.7 °F /  25.4 °C 56.5 °F /  13.6 °C 30.1in /  1017.6hPa North 2mph /  3.2km/h 2mph /  3.2km/h 48% 0in /  0.0mm 744 W/m2
14:28 77.7 °F /  25.4 °C 57.6 °F /  14.2 °C 30.1in /  1017.6hPa ESE 0.9mph /  1.4km/h 4mph /  6.4km/h 50% 0in /  0.0mm 742 W/m2
14:33 78.1 °F /  25.6 °C 57.4 °F /  14.1 °C 30.1in /  1017.6hPa Calm   3mph /  4.8km/h 49% 0in /  0.0mm 738 W/m2
14:38 78.1 °F /  25.6 °C 56.8 °F /  13.8 °C 30.1in /  1017.6hPa SE 2mph /  3.2km/h 3mph /  4.8km/h 48% 0in /  0.0mm 733 W/m2
14:43 78.3 °F /  25.7 °C 57.6 °F /  14.2 °C 30.1in /  1017.6hPa ESE 2mph /  3.2km/h 3mph /  4.8km/h 49% 0in /  0.0mm 733 W/m2
14:48 78.4 °F /  25.8 °C 56.5 °F /  13.6 °C 30.1in /  1017.6hPa Calm   2mph /  3.2km/h 47% 0in /  0.0mm 728 W/m2
14:53 78.6 °F /  25.9 °C 57.2 °F /  14 °C 30.1in /  1017.6hPa East 2.9mph /  4.7km/h 7mph /  11.3km/h 48% 0in /  0.0mm 724 W/m2
14:58 79 °F /  26.1 °C 58.8 °F /  14.9 °C 30.1in /  1017.6hPa Calm   4mph /  6.4km/h 50% 0in /  0.0mm 719 W/m2
15:03 79.3 °F /  26.3 °C 56.8 °F /  13.8 °C 30.1in /  1017.6hPa East 0.9mph /  1.4km/h 3mph /  4.8km/h 46% 0in /  0.0mm 714 W/m2
15:08 79.3 °F /  26.3 °C 58.5 °F /  14.7 °C 30in /  1017.3hPa ESE 2mph /  3.2km/h 3mph /  4.8km/h 49% 0in /  0.0mm 708 W/m2
15:13 79.3 °F /  26.3 °C 58.5 °F /  14.7 °C 30in /  1017.3hPa Calm   1mph /  1.6km/h 49% 0in /  0.0mm 703 W/m2
15:18 79.7 °F /  26.5 °C 57.7 °F /  14.3 °C 30in /  1017.3hPa ENE 0.9mph /  1.4km/h 2mph /  3.2km/h 47% 0in /  0.0mm 698 W/m2
15:23 80.1 °F /  26.7 °C 58.6 °F /  14.8 °C 30in /  1017.3hPa East 2mph /  3.2km/h 4mph /  6.4km/h 48% 0in /  0.0mm 689 W/m2
15:28 79.9 °F /  26.6 °C 59 °F /  15 °C 30in /  1016.9hPa East 2.9mph /  4.7km/h 3mph /  4.8km/h 49% 0in /  0.0mm 684 W/m2
15:33 79.7 °F /  26.5 °C 57 °F /  13.9 °C 30in /  1016.9hPa ESE 2.9mph /  4.7km/h 4mph /  6.4km/h 46% 0in /  0.0mm 675 W/m2
15:38 80.1 °F /  26.7 °C 59.2 °F /  15.1 °C 30in /  1016.9hPa SSW 2mph /  3.2km/h 3mph /  4.8km/h 49% 0in /  0.0mm 664 W/m2
15:43 79.9 °F /  26.6 °C 58.5 °F /  14.7 °C 30in /  1016.9hPa Calm   4mph /  6.4km/h 48% 0in /  0.0mm 659 W/m2
15:48 80.1 °F /  26.7 °C 56.8 °F /  13.8 °C 30in /  1016.9hPa Calm   4mph /  6.4km/h 45% 0in /  0.0mm 652 W/m2
15:53 79.9 °F /  26.6 °C 56.7 °F /  13.7 °C 30in /  1016.9hPa East 0.9mph /  1.4km/h 1mph /  1.6km/h 45% 0in /  0.0mm 640 W/m2
15:58 79.7 °F /  26.5 °C 56.5 °F /  13.6 °C 30in /  1016.9hPa WNW 2mph /  3.2km/h 2mph /  3.2km/h 45% 0in /  0.0mm 638 W/m2
16:03 79.5 °F /  26.4 °C 57.6 °F /  14.2 °C 30in /  1016.6hPa WSW 2mph /  3.2km/h 2mph /  3.2km/h 47% 0in /  0.0mm 629 W/m2
16:09 79.7 °F /  26.5 °C 59.4 °F /  15.2 °C 30in /  1016.6hPa Calm   2mph /  3.2km/h 50% 0in /  0.0mm 617 W/m2
16:14 79.9 °F /  26.6 °C 57.9 °F /  14.4 °C 30in /  1016.6hPa East 0.9mph /  1.4km/h 2mph /  3.2km/h 47% 0in /  0.0mm 610 W/m2
16:19 80.1 °F /  26.7 °C 57.4 °F /  14.1 °C 30in /  1016.6hPa SE 2mph /  3.2km/h 2mph /  3.2km/h 46% 0in /  0.0mm 599 W/m2
16:24 80.4 °F /  26.9 °C 59 °F /  15 °C 30in /  1016.6hPa Calm   3mph /  4.8km/h 48% 0in /  0.0mm 587 W/m2
16:29 81 °F /  27.2 °C 57.6 °F /  14.2 °C 30in /  1016.3hPa Calm   2mph /  3.2km/h 45% 0in /  0.0mm 578 W/m2
16:34 81.1 °F /  27.3 °C 57.2 °F /  14 °C 30in /  1016.3hPa ESE 0.9mph /  1.4km/h 4mph /  6.4km/h 44% 0in /  0.0mm 568 W/m2
16:39 81.3 °F /  27.4 °C 57.4 °F /  14.1 °C 30in /  1016.3hPa ESE 0.9mph /  1.4km/h 3mph /  4.8km/h 44% 0in /  0.0mm 557 W/m2
16:44 81.7 °F /  27.6 °C 57.6 °F /  14.2 °C 30in /  1016.3hPa SW 0.9mph /  1.4km/h 4mph /  6.4km/h 44% 0in /  0.0mm 541 W/m2
16:49 81.7 °F /  27.6 °C 58.3 °F /  14.6 °C 30in /  1016.3hPa SSE 0.9mph /  1.4km/h 4mph /  6.4km/h 45% 0in /  0.0mm 526 W/m2
16:54 81.5 °F /  27.5 °C 56.8 °F /  13.8 °C 30in /  1016.3hPa Calm   2mph /  3.2km/h 43% 0in /  0.0mm 519 W/m2
16:59 81.3 °F /  27.4 °C 57.4 °F /  14.1 °C 30in /  1016.3hPa SE 2.9mph /  4.7km/h 6mph /  9.7km/h 44% 0in /  0.0mm 508 W/m2
17:04 81.3 °F /  27.4 °C 56.1 °F /  13.4 °C 30in /  1016.3hPa North 2mph /  3.2km/h 3mph /  4.8km/h 42% 0in /  0.0mm 490 W/m2
17:09 81.5 °F /  27.5 °C 54.9 °F /  12.7 °C 30in /  1016.3hPa ENE 0.9mph /  1.4km/h 6mph /  9.7km/h 40% 0in /  0.0mm 478 W/m2
17:14 81.5 °F /  27.5 °C 55.6 °F /  13.1 °C 30in /  1016.3hPa NNW 0.9mph /  1.4km/h 3mph /  4.8km/h 41% 0in /  0.0mm 462 W/m2
17:19 81.5 °F /  27.5 °C 56.1 °F /  13.4 °C 30in /  1015.9hPa SE 2mph /  3.2km/h 3mph /  4.8km/h 42% 0in /  0.0mm 448 W/m2
17:24 81.3 °F /  27.4 °C 56.7 °F /  13.7 °C 30in /  1016.3hPa SE 0.9mph /  1.4km/h 2mph /  3.2km/h 43% 0in /  0.0mm 439 W/m2
17:29 81.1 °F /  27.3 °C 56.5 °F /  13.6 °C 30in /  1015.9hPa Calm   3mph /  4.8km/h 43% 0in /  0.0mm 422 W/m2
17:34 81.3 °F /  27.4 °C 57.4 °F /  14.1 °C 30in /  1015.9hPa WSW 0.9mph /  1.4km/h 2mph /  3.2km/h 44% 0in /  0.0mm 404 W/m2
17:39 81.3 °F /  27.4 °C 57.4 °F /  14.1 °C 30in /  1015.9hPa NNW 2mph /  3.2km/h 2mph /  3.2km/h 44% 0in /  0.0mm 390 W/m2
17:44 81 °F /  27.2 °C 55.8 °F /  13.2 °C 30in /  1015.9hPa West 6mph /  9.7km/h 6mph /  9.7km/h 42% 0in /  0.0mm 380 W/m2
17:49 80.8 °F /  27.1 °C 54.9 °F /  12.7 °C 30in /  1015.9hPa Calm   4mph /  6.4km/h 41% 0in /  0.0mm 360 W/m2
17:54 80.8 °F /  27.1 °C 56.1 °F /  13.4 °C 30in /  1015.9hPa Calm   2mph /  3.2km/h 43% 0in /  0.0mm 348 W/m2
17:59 81 °F /  27.2 °C 55.8 °F /  13.2 °C 30in /  1015.6hPa ENE 2mph /  3.2km/h 3mph /  4.8km/h 42% 0in /  0.0mm 334 W/m2
18:04 80.8 °F /  27.1 °C 55.6 °F /  13.1 °C 30in /  1015.9hPa Calm   3mph /  4.8km/h 42% 0in /  0.0mm 322 W/m2
18:09 80.8 °F /  27.1 °C 56.1 °F /  13.4 °C 30in /  1015.9hPa East 2mph /  3.2km/h 7mph /  11.3km/h 43% 0in /  0.0mm 308 W/m2
18:14 80.8 °F /  27.1 °C 55.6 °F /  13.1 °C 30in /  1015.6hPa NNW 0.9mph /  1.4km/h 2mph /  3.2km/h 42% 0in /  0.0mm 294 W/m2
18:19 80.8 °F /  27.1 °C 54.9 °F /  12.7 °C 30in /  1015.6hPa ENE 0.9mph /  1.4km/h 6mph /  9.7km/h 41% 0in /  0.0mm 274 W/m2
18:24 81 °F /  27.2 °C 55.8 °F /  13.2 °C 30in /  1015.6hPa Calm   2mph /  3.2km/h 42% 0in /  0.0mm 262 W/m2
18:29 80.4 °F /  26.9 °C 54.5 °F /  12.5 °C 30in /  1015.6hPa ESE 2mph /  3.2km/h 4mph /  6.4km/h 41% 0in /  0.0mm 250 W/m2
18:34 80.2 °F /  26.8 °C 55.8 °F /  13.2 °C 30in /  1015.6hPa Calm   1mph /  1.6km/h 43% 0in /  0.0mm 236 W/m2
18:39 80.1 °F /  26.7 °C 56.1 °F /  13.4 °C 30in /  1015.6hPa NE 2.9mph /  4.7km/h 4mph /  6.4km/h 44% 0in /  0.0mm 218 W/m2
18:44 79.9 °F /  26.6 °C 55.4 °F /  13 °C 30in /  1015.6hPa NW 0.9mph /  1.4km/h 3mph /  4.8km/h 43% 0in /  0.0mm 202 W/m2
18:49 79.9 °F /  26.6 °C 55.9 °F /  13.3 °C 30in /  1015.6hPa Calm     44% 0in /  0.0mm 190 W/m2
18:54 79.7 °F /  26.5 °C 56.5 °F /  13.6 °C 30in /  1015.6hPa Calm   1mph /  1.6km/h 45% 0in /  0.0mm 174 W/m2
18:59 79.2 °F /  26.2 °C 55.9 °F /  13.3 °C 30in /  1015.6hPa North 0.9mph /  1.4km/h 3mph /  4.8km/h 45% 0in /  0.0mm 158 W/m2
19:04 79 °F /  26.1 °C 57.6 °F /  14.2 °C 30in /  1015.6hPa SSE 2mph /  3.2km/h 2mph /  3.2km/h 48% 0in /  0.0mm 144 W/m2
19:09 78.3 °F /  25.7 °C 57.6 °F /  14.2 °C 30in /  1015.6hPa NW 0.9mph /  1.4km/h 2mph /  3.2km/h 49% 0in /  0.0mm 130 W/m2
19:14 77.4 °F /  25.2 °C 55.6 °F /  13.1 °C 30in /  1015.6hPa ENE 0.9mph /  1.4km/h 2mph /  3.2km/h 47% 0in /  0.0mm 113 W/m2
19:19 77.2 °F /  25.1 °C 57.7 °F /  14.3 °C 30in /  1015.6hPa NE 0.9mph /  1.4km/h 2mph /  3.2km/h 51% 0in /  0.0mm 95 W/m2
19:24 76.6 °F /  24.8 °C 58.3 °F /  14.6 °C 30in /  1015.6hPa Calm   2mph /  3.2km/h 53% 0in /  0.0mm 79 W/m2
19:29 75.9 °F /  24.4 °C 58.1 °F /  14.5 °C 30in /  1015.6hPa SE 0.9mph /  1.4km/h 1mph /  1.6km/h 54% 0in /  0.0mm 25 W/m2
19:34 75.2 °F /  24 °C 58.5 °F /  14.7 °C 30in /  1015.6hPa SE 0.9mph /  1.4km/h 2mph /  3.2km/h 56% 0in /  0.0mm 23 W/m2
19:39 74.5 °F /  23.6 °C 58.3 °F /  14.6 °C 30in /  1015.6hPa Calm   2mph /  3.2km/h 57% 0in /  0.0mm 19 W/m2
19:44 73.8 °F /  23.2 °C 58.1 °F /  14.5 °C 30in /  1015.2hPa SE 0.9mph /  1.4km/h 1mph /  1.6km/h 58% 0in /  0.0mm 18 W/m2
19:49 73 °F /  22.8 °C 57.9 °F /  14.4 °C 30in /  1015.6hPa Calm   2mph /  3.2km/h 59% 0in /  0.0mm 14 W/m2
19:54 72.5 °F /  22.5 °C 57.7 °F /  14.3 °C 30in /  1015.6hPa Calm     60% 0in /  0.0mm 12 W/m2
19:59 72 °F /  22.2 °C 57.7 °F /  14.3 °C 30in /  1015.6hPa Calm   2mph /  3.2km/h 61% 0in /  0.0mm 11 W/m2
20:04 71.2 °F /  21.8 °C 57.6 °F /  14.2 °C 30in /  1015.6hPa Calm     62% 0in /  0.0mm 9 W/m2
20:09 70.7 °F /  21.5 °C 57.6 °F /  14.2 °C 30in /  1015.6hPa SE 2mph /  3.2km/h 2mph /  3.2km/h 63% 0in /  0.0mm 5 W/m2
20:14 70.2 °F /  21.2 °C 57.4 °F /  14.1 °C 30in /  1015.6hPa Calm     64% 0in /  0.0mm 5 W/m2
20:19 69.4 °F /  20.8 °C 57.2 °F /  14 °C 30in /  1015.6hPa Calm     65% 0in /  0.0mm 0 W/m2
20:24 68.7 °F /  20.4 °C 57.4 °F /  14.1 °C 30in /  1015.6hPa Calm     67% 0in /  0.0mm 0 W/m2
20:29 68.4 °F /  20.2 °C 57 °F /  13.9 °C 30in /  1015.6hPa Calm     67% 0in /  0.0mm 0 W/m2
20:34 67.8 °F /  19.9 °C 56.8 °F /  13.8 °C 30in /  1015.9hPa Calm     68% 0in /  0.0mm 0 W/m2
20:39 67.5 °F /  19.7 °C 57 °F /  13.9 °C 30in /  1015.9hPa Calm     69% 0in /  0.0mm 0 W/m2
20:44 66.9 °F /  19.4 °C 56.8 °F /  13.8 °C 30in /  1015.9hPa Calm     70% 0in /  0.0mm 0 W/m2
20:49 66.7 °F /  19.3 °C 57 °F /  13.9 °C 30in /  1015.9hPa Calm   1mph /  1.6km/h 71% 0in /  0.0mm 0 W/m2
20:54 66.4 °F /  19.1 °C 57 °F /  13.9 °C 30in /  1015.9hPa Calm     72% 0in /  0.0mm 0 W/m2
20:59 66 °F /  18.9 °C 56.7 °F /  13.7 °C 30in /  1015.9hPa Calm   1mph /  1.6km/h 72% 0in /  0.0mm 0 W/m2
21:04 65.7 °F /  18.7 °C 57.2 °F /  14 °C 30in /  1015.9hPa Calm     74% 0in /  0.0mm 0 W/m2
21:10 65.5 °F /  18.6 °C 57 °F /  13.9 °C 30in /  1016.3hPa Calm     74% 0in /  0.0mm 0 W/m2
21:15 65.1 °F /  18.4 °C 57 °F /  13.9 °C 30in /  1016.3hPa Calm     75% 0in /  0.0mm 0 W/m2
21:20 64.9 °F /  18.3 °C 57.2 °F /  14 °C 30in /  1015.9hPa Calm     76% 0in /  0.0mm 0 W/m2
21:25 64.6 °F /  18.1 °C 56.8 °F /  13.8 °C 30in /  1016.3hPa Calm     76% 0in /  0.0mm 0 W/m2
21:30 64.2 °F /  17.9 °C 56.8 °F /  13.8 °C 30in /  1015.9hPa Calm     77% 0in /  0.0mm 0 W/m2
21:35 64 °F /  17.8 °C 57 °F /  13.9 °C 30in /  1016.3hPa Calm     78% 0in /  0.0mm 0 W/m2
21:40 63.9 °F /  17.7 °C 56.8 °F /  13.8 °C 30in /  1016.3hPa Calm     78% 0in /  0.0mm 0 W/m2
21:45 63.5 °F /  17.5 °C 56.5 °F /  13.6 °C 30in /  1016.3hPa Calm     78% 0in /  0.0mm 0 W/m2
21:50 63.3 °F /  17.4 °C 56.7 °F /  13.7 °C 30in /  1016.3hPa Calm     79% 0in /  0.0mm 0 W/m2
Juneau County Weather
Compliments of Weather Underground - 4 mb